createdAt,value
2023-05-19T00:02:39.870Z,62.92
2023-05-19T00:08:04.540Z,63.35
2023-05-19T00:13:09.556Z,63.71
2023-05-19T00:18:21.128Z,63.92
2023-05-19T00:23:29.034Z,64.12
2023-05-19T00:28:33.156Z,64.23
2023-05-19T00:33:37.175Z,64.44
2023-05-19T00:39:03.017Z,64.66
2023-05-19T00:44:32.635Z,64.79
2023-05-19T00:50:00.153Z,64.97
2023-05-19T00:56:33.232Z,65.22
2023-05-19T01:02:03.388Z,65.39
2023-05-19T01:07:08.020Z,65.54
2023-05-19T01:12:37.569Z,65.89
2023-05-19T01:18:13.017Z,66.03
2023-05-19T01:23:57.611Z,66.29
2023-05-19T01:29:41.539Z,66.36
2023-05-19T01:36:08.664Z,66.72
2023-05-19T01:41:38.588Z,66.88
2023-05-19T01:47:23.190Z,66.79
2023-05-19T01:52:27.006Z,67.03
2023-05-19T01:58:17.227Z,67.10
2023-05-19T02:03:35.173Z,67.30
2023-05-19T02:15:39.665Z,67.68
2023-05-19T02:21:34.684Z,67.66
2023-05-19T02:26:38.559Z,67.90
2023-05-19T02:32:08.330Z,68.00
2023-05-19T02:37:16.779Z,68.34
2023-05-19T02:42:21.542Z,68.68
2023-05-19T02:48:27.712Z,68.93
2023-05-19T02:53:57.052Z,69.22
2023-05-19T02:59:03.133Z,69.35
2023-05-19T03:04:32.449Z,69.28
2023-05-19T03:10:59.217Z,69.35
2023-05-19T03:16:30.067Z,69.26
2023-05-19T03:22:50.565Z,69.55
2023-05-19T03:28:19.444Z,69.76
2023-05-19T03:34:24.847Z,69.69
2023-05-19T03:40:45.417Z,69.86
2023-05-19T03:45:49.414Z,69.78
2023-05-19T03:51:49.811Z,69.60
2023-05-19T03:57:18.828Z,69.25
2023-05-19T04:03:44.269Z,68.96
2023-05-19T04:08:48.026Z,68.79
2023-05-19T04:13:51.613Z,68.75
2023-05-19T04:19:00.442Z,68.66
2023-05-19T04:32:29.749Z,68.33
2023-05-19T04:38:59.175Z,68.26
2023-05-19T04:48:27.901Z,68.10
2023-05-19T04:53:56.918Z,68.03
2023-05-19T04:59:02.090Z,67.88
2023-05-19T05:04:08.572Z,67.75
2023-05-19T05:09:18.956Z,67.59
2023-05-19T05:15:13.459Z,67.51
2023-05-19T05:20:39.916Z,67.18
2023-05-19T05:27:01.756Z,67.15
2023-05-19T05:32:11.574Z,66.70
2023-05-19T05:37:44.340Z,66.71
2023-05-19T05:43:13.988Z,66.55
2023-05-19T05:48:18.410Z,66.67
2023-05-19T05:54:38.956Z,66.13
2023-05-19T05:59:43.595Z,65.54
2023-05-19T06:05:25.551Z,65.16
2023-05-19T06:10:29.606Z,65.35
2023-05-19T06:15:55.452Z,64.94
2023-05-19T06:21:25.150Z,64.54
2023-05-19T06:26:47.337Z,64.69
2023-05-19T06:32:16.400Z,64.62
2023-05-19T06:45:17.445Z,63.47
2023-05-19T06:50:46.521Z,62.76
2023-05-19T06:56:41.266Z,62.67
2023-05-19T07:01:48.005Z,62.05
2023-05-19T07:07:17.097Z,61.58
2023-05-19T07:19:11.350Z,59.92
2023-05-19T07:25:07.625Z,59.54
2023-05-19T07:30:18.506Z,58.95
2023-05-19T07:35:47.813Z,58.62
2023-05-19T07:41:43.483Z,58.15
2023-05-19T07:46:47.499Z,57.99
2023-05-19T07:51:51.401Z,58.44
2023-05-19T07:57:20.245Z,58.51
2023-05-19T08:02:42.324Z,58.40
2023-05-19T08:08:37.306Z,58.56
2023-05-19T08:13:58.626Z,58.53
2023-05-19T08:19:05.611Z,58.43
2023-05-19T08:24:34.539Z,57.22
2023-05-19T08:30:03.464Z,57.25
2023-05-19T08:35:35.342Z,57.44
2023-05-19T08:42:04.075Z,57.65
2023-05-19T08:47:13.719Z,57.42
2023-05-19T08:52:52.829Z,57.69
2023-05-19T08:58:51.844Z,57.81
2023-05-19T09:11:00.968Z,56.79
2023-05-19T09:16:48.698Z,55.69
2023-05-19T09:22:03.908Z,54.97
2023-05-19T09:27:24.491Z,54.27
2023-05-19T09:32:28.658Z,53.43
2023-05-19T09:37:32.687Z,52.34
2023-05-19T09:43:53.605Z,52.59
2023-05-19T09:49:30.302Z,52.79
2023-05-19T09:54:35.342Z,53.02
2023-05-19T10:00:31.846Z,53.00
2023-05-19T10:05:36.793Z,52.50
2023-05-19T10:11:32.679Z,53.02
2023-05-19T10:17:12.854Z,52.92
2023-05-19T10:22:44.220Z,52.69
2023-05-19T10:28:27.231Z,53.78
2023-05-19T10:34:22.431Z,53.76
2023-05-19T10:39:38.173Z,54.38
2023-05-19T10:45:37.038Z,54.92
2023-05-19T10:50:40.964Z,55.94
2023-05-19T10:56:10.968Z,57.19
2023-05-19T11:01:39.027Z,58.31
2023-05-19T11:14:01.023Z,60.22
2023-05-19T11:19:07.962Z,60.95
2023-05-19T11:24:40.345Z,61.92
2023-05-19T11:31:10.269Z,61.62
2023-05-19T11:36:17.258Z,60.94
2023-05-19T11:41:47.290Z,61.26
2023-05-19T11:48:01.178Z,62.07
2023-05-19T11:53:06.824Z,62.65
2023-05-19T11:58:38.303Z,62.36
2023-05-19T12:04:50.267Z,63.19
2023-05-19T12:21:19.435Z,63.58
2023-05-19T12:27:39.677Z,63.38
2023-05-19T12:33:10.146Z,64.06
2023-05-19T12:38:16.594Z,64.45
2023-05-19T12:44:36.749Z,65.38
2023-05-19T12:50:01.527Z,65.75
2023-05-19T12:55:12.760Z,65.67
2023-05-19T13:00:48.405Z,65.87
2023-05-19T13:06:12.413Z,66.55
2023-05-19T13:11:44.070Z,66.58
2023-05-19T13:16:52.069Z,66.74
2023-05-19T13:22:22.117Z,66.54
2023-05-19T13:41:43.411Z,64.65
2023-05-19T13:46:49.249Z,64.76
2023-05-19T14:08:01.387Z,65.68
2023-05-19T14:13:30.403Z,65.94
2023-05-19T14:18:29.112Z,65.64
2023-05-19T14:24:22.870Z,65.69
2023-05-19T14:29:27.441Z,65.64
2023-05-19T14:43:08.666Z,65.20
2023-05-19T14:55:13.720Z,64.68
2023-05-19T15:14:13.332Z,65.46
2023-05-19T15:19:17.316Z,65.47
2023-05-19T15:24:21.133Z,65.40
2023-05-19T15:37:12.298Z,65.29
2023-05-19T15:58:04.433Z,65.72
2023-05-19T16:03:08.749Z,65.67
2023-05-19T16:13:18.036Z,66.00
2023-05-19T16:18:21.818Z,66.35
2023-05-19T16:23:45.140Z,66.84
2023-05-19T16:28:49.270Z,66.67
2023-05-19T16:33:53.636Z,66.57
2023-05-19T16:38:57.615Z,66.30
2023-05-19T16:44:02.987Z,66.24
2023-05-19T16:49:57.429Z,65.93
2023-05-19T16:55:01.364Z,66.06
2023-05-19T17:00:06.155Z,66.21
2023-05-19T17:05:54.546Z,66.36
2023-05-19T17:11:50.413Z,66.53
2023-05-19T17:23:50.439Z,66.81
2023-05-19T17:28:58.503Z,66.92
2023-05-19T17:34:02.749Z,67.14
2023-05-19T17:39:35.648Z,67.33
2023-05-19T17:44:41.883Z,67.72
2023-05-19T17:56:54.803Z,67.99
2023-05-19T18:09:10.982Z,68.14
2023-05-19T18:14:15.391Z,68.50
2023-05-19T18:19:20.445Z,68.68
2023-05-19T18:24:24.625Z,68.65
2023-05-19T18:29:28.788Z,68.68
2023-05-19T18:34:33.797Z,68.76
2023-05-19T18:39:38.643Z,68.83
2023-05-19T18:44:47.654Z,68.88
2023-05-19T18:49:52.374Z,68.90
2023-05-19T18:54:56.727Z,69.11
2023-05-19T19:00:01.220Z,69.18
2023-05-19T19:05:10.191Z,69.35
2023-05-19T19:10:15.765Z,69.48
2023-05-19T19:15:21.776Z,69.65
2023-05-19T19:20:27.945Z,69.88
2023-05-19T19:25:37.410Z,70.08
2023-05-19T19:30:42.627Z,70.17
2023-05-19T19:35:49.686Z,70.34
2023-05-19T19:40:56.648Z,70.54
2023-05-19T19:46:06.003Z,70.89
2023-05-19T19:51:14.705Z,71.27
2023-05-19T19:56:20.391Z,71.40
2023-05-19T20:01:28.143Z,71.57
2023-05-19T20:06:32.740Z,71.53
2023-05-19T20:12:27.419Z,71.61
2023-05-19T20:17:35.693Z,71.83
2023-05-19T20:22:45.001Z,71.92
2023-05-19T20:28:46.191Z,71.93
2023-05-19T20:33:54.114Z,72.03
2023-05-19T20:38:58.488Z,71.92
2023-05-19T20:44:06.791Z,72.15
2023-05-19T20:49:10.964Z,72.15
2023-05-19T20:54:40.112Z,72.19
2023-05-19T20:59:58.618Z,72.19
2023-05-19T21:05:57.707Z,72.23
2023-05-19T21:11:54.038Z,72.29
2023-05-19T21:24:19.166Z,72.52
2023-05-19T21:29:23.209Z,72.51
2023-05-19T21:35:17.700Z,72.50
2023-05-19T21:40:22.174Z,72.61
2023-05-19T22:00:13.385Z,72.72
2023-05-19T22:06:02.166Z,72.71
2023-05-19T22:11:40.701Z,72.81
2023-05-19T22:16:48.063Z,72.74
2023-05-19T22:22:01.921Z,72.86
2023-05-19T22:27:10.453Z,72.96
2023-05-19T22:32:17.220Z,72.90
2023-05-19T22:37:24.250Z,73.00
2023-05-19T22:42:28.329Z,72.94
2023-05-19T22:47:32.258Z,72.89
2023-05-19T23:06:56.291Z,72.69
2023-05-19T23:12:00.249Z,72.69
2023-05-19T23:17:04.513Z,72.71
2023-05-19T23:22:08.918Z,72.57
2023-05-19T23:27:13.879Z,72.43
2023-05-19T23:32:43.094Z,72.33
2023-05-19T23:37:46.945Z,72.42
2023-05-19T23:43:15.463Z,72.40
2023-05-19T23:48:19.609Z,72.44
2023-05-19T23:53:23.340Z,72.43
2023-05-19T23:58:27.411Z,72.28
